sensor_id;sensor_type;location;lat;lon;timestamp;P1;durP1;ratioP1;P2;durP2;ratioP2
41946;SDS011;27638;42.184;24.848;2023-03-01T00:01:58;3.40;;;2.30;;
41946;SDS011;27638;42.184;24.848;2023-03-01T00:04:23;6.75;;;4.22;;
41946;SDS011;27638;42.184;24.848;2023-03-01T00:06:49;2.85;;;1.98;;
41946;SDS011;27638;42.184;24.848;2023-03-01T00:09:14;2.63;;;1.95;;
41946;SDS011;27638;42.184;24.848;2023-03-01T00:11:40;2.20;;;1.75;;
41946;SDS011;27638;42.184;24.848;2023-03-01T00:14:06;2.80;;;1.80;;
41946;SDS011;27638;42.184;24.848;2023-03-01T00:16:38;3.85;;;3.20;;
41946;SDS011;27638;42.184;24.848;2023-03-01T00:19:06;3.13;;;2.72;;
41946;SDS011;27638;42.184;24.848;2023-03-01T00:21:32;4.57;;;4.05;;
41946;SDS011;27638;42.184;24.848;2023-03-01T00:24:00;5.95;;;3.80;;
41946;SDS011;27638;42.184;24.848;2023-03-01T00:26:26;2.40;;;1.55;;
41946;SDS011;27638;42.184;24.848;2023-03-01T00:28:52;1.65;;;1.40;;
41946;SDS011;27638;42.184;24.848;2023-03-01T00:31:21;1.63;;;1.38;;
41946;SDS011;27638;42.184;24.848;2023-03-01T00:33:48;2.70;;;1.40;;
41946;SDS011;27638;42.184;24.848;2023-03-01T00:36:14;1.88;;;1.25;;
41946;SDS011;27638;42.184;24.848;2023-03-01T00:38:41;2.35;;;1.40;;
41946;SDS011;27638;42.184;24.848;2023-03-01T00:41:12;2.67;;;1.83;;
41946;SDS011;27638;42.184;24.848;2023-03-01T00:43:40;1.92;;;1.50;;
41946;SDS011;27638;42.184;24.848;2023-03-01T00:46:10;2.28;;;1.70;;
41946;SDS011;27638;42.184;24.848;2023-03-01T00:48:37;2.47;;;2.00;;
41946;SDS011;27638;42.184;24.848;2023-03-01T00:51:10;2.92;;;1.67;;
41946;SDS011;27638;42.184;24.848;2023-03-01T00:53:44;2.47;;;1.60;;
41946;SDS011;27638;42.184;24.848;2023-03-01T00:56:11;2.53;;;1.45;;
41946;SDS011;27638;42.184;24.848;2023-03-01T00:58:37;3.63;;;1.80;;
41946;SDS011;27638;42.184;24.848;2023-03-01T01:01:07;2.85;;;1.88;;
41946;SDS011;27638;42.184;24.848;2023-03-01T01:06:34;3.30;;;2.17;;
41946;SDS011;27638;42.184;24.848;2023-03-01T01:09:03;2.03;;;1.83;;
41946;SDS011;27638;42.184;24.848;2023-03-01T01:11:30;2.75;;;2.03;;
41946;SDS011;27638;42.184;24.848;2023-03-01T01:13:56;2.33;;;1.52;;
41946;SDS011;27638;42.184;24.848;2023-03-01T01:16:23;2.38;;;1.58;;
41946;SDS011;27638;42.184;24.848;2023-03-01T01:18:50;2.50;;;1.50;;
41946;SDS011;27638;42.184;24.848;2023-03-01T01:21:21;2.47;;;1.90;;
41946;SDS011;27638;42.184;24.848;2023-03-01T01:23:47;1.63;;;1.20;;
41946;SDS011;27638;42.184;24.848;2023-03-01T01:26:15;2.28;;;1.45;;
41946;SDS011;27638;42.184;24.848;2023-03-01T01:28:43;2.85;;;1.70;;
41946;SDS011;27638;42.184;24.848;2023-03-01T01:31:08;2.08;;;1.63;;
41946;SDS011;27638;42.184;24.848;2023-03-01T01:33:34;3.55;;;1.70;;
41946;SDS011;27638;42.184;24.848;2023-03-01T01:36:00;2.28;;;1.50;;
41946;SDS011;27638;42.184;24.848;2023-03-01T01:38:25;1.40;;;1.30;;
41946;SDS011;27638;42.184;24.848;2023-03-01T01:40:51;1.35;;;1.20;;
41946;SDS011;27638;42.184;24.848;2023-03-01T01:43:18;3.05;;;1.75;;
41946;SDS011;27638;42.184;24.848;2023-03-01T01:45:47;2.35;;;1.50;;
41946;SDS011;27638;42.184;24.848;2023-03-01T01:48:14;1.63;;;1.15;;
41946;SDS011;27638;42.184;24.848;2023-03-01T01:50:43;1.58;;;1.48;;
41946;SDS011;27638;42.184;24.848;2023-03-01T01:53:11;1.67;;;1.38;;
41946;SDS011;27638;42.184;24.848;2023-03-01T01:55:41;1.52;;;1.15;;
41946;SDS011;27638;42.184;24.848;2023-03-01T01:58:11;1.50;;;1.30;;
41946;SDS011;27638;42.184;24.848;2023-03-01T02:00:40;2.72;;;1.23;;
41946;SDS011;27638;42.184;24.848;2023-03-01T02:03:25;1.55;;;1.38;;
41946;SDS011;27638;42.184;24.848;2023-03-01T02:06:00;3.75;;;1.67;;
41946;SDS011;27638;42.184;24.848;2023-03-01T02:08:31;2.63;;;1.75;;
41946;SDS011;27638;42.184;24.848;2023-03-01T02:11:00;3.05;;;1.88;;
41946;SDS011;27638;42.184;24.848;2023-03-01T02:13:29;2.78;;;1.60;;
41946;SDS011;27638;42.184;24.848;2023-03-01T02:15:56;3.63;;;2.25;;
41946;SDS011;27638;42.184;24.848;2023-03-01T02:18:22;3.63;;;1.80;;
41946;SDS011;27638;42.184;24.848;2023-03-01T02:23:59;3.55;;;2.15;;
41946;SDS011;27638;42.184;24.848;2023-03-01T02:26:47;2.45;;;2.22;;
41946;SDS011;27638;42.184;24.848;2023-03-01T02:29:15;3.75;;;2.33;;
41946;SDS011;27638;42.184;24.848;2023-03-01T02:31:40;3.83;;;2.00;;
41946;SDS011;27638;42.184;24.848;2023-03-01T02:34:17;3.63;;;1.73;;
41946;SDS011;27638;42.184;24.848;2023-03-01T02:37:18;2.58;;;1.80;;
41946;SDS011;27638;42.184;24.848;2023-03-01T02:39:40;2.58;;;2.03;;
41946;SDS011;27638;42.184;24.848;2023-03-01T02:42:12;3.63;;;2.75;;
41946;SDS011;27638;42.184;24.848;2023-03-01T02:44:41;3.35;;;2.22;;
41946;SDS011;27638;42.184;24.848;2023-03-01T02:47:07;3.58;;;2.25;;
41946;SDS011;27638;42.184;24.848;2023-03-01T02:49:34;3.03;;;2.30;;
41946;SDS011;27638;42.184;24.848;2023-03-01T02:52:05;3.17;;;1.75;;
41946;SDS011;27638;42.184;24.848;2023-03-01T02:54:58;2.55;;;1.42;;
41946;SDS011;27638;42.184;24.848;2023-03-01T02:57:26;2.75;;;1.80;;
41946;SDS011;27638;42.184;24.848;2023-03-01T02:59:54;4.22;;;2.20;;
41946;SDS011;27638;42.184;24.848;2023-03-01T03:02:24;2.85;;;1.90;;
41946;SDS011;27638;42.184;24.848;2023-03-01T03:07:37;3.95;;;2.38;;
41946;SDS011;27638;42.184;24.848;2023-03-01T03:10:05;2.63;;;1.80;;
41946;SDS011;27638;42.184;24.848;2023-03-01T03:12:32;4.25;;;2.70;;
41946;SDS011;27638;42.184;24.848;2023-03-01T03:14:57;4.05;;;3.38;;
41946;SDS011;27638;42.184;24.848;2023-03-01T03:17:24;3.15;;;2.28;;
41946;SDS011;27638;42.184;24.848;2023-03-01T03:19:49;3.70;;;2.67;;
41946;SDS011;27638;42.184;24.848;2023-03-01T03:22:15;2.80;;;2.17;;
41946;SDS011;27638;42.184;24.848;2023-03-01T03:24:40;2.88;;;1.80;;
41946;SDS011;27638;42.184;24.848;2023-03-01T03:27:06;3.28;;;2.13;;
41946;SDS011;27638;42.184;24.848;2023-03-01T03:29:32;2.60;;;1.95;;
41946;SDS011;27638;42.184;24.848;2023-03-01T03:31:58;3.75;;;2.15;;
41946;SDS011;27638;42.184;24.848;2023-03-01T03:34:23;2.40;;;1.80;;
41946;SDS011;27638;42.184;24.848;2023-03-01T03:36:53;3.90;;;2.08;;
41946;SDS011;27638;42.184;24.848;2023-03-01T03:39:22;2.72;;;1.95;;
41946;SDS011;27638;42.184;24.848;2023-03-01T03:41:48;2.63;;;1.80;;
41946;SDS011;27638;42.184;24.848;2023-03-01T03:44:13;3.38;;;2.67;;
41946;SDS011;27638;42.184;24.848;2023-03-01T03:46:39;4.47;;;2.35;;
41946;SDS011;27638;42.184;24.848;2023-03-01T03:49:05;3.08;;;2.13;;
41946;SDS011;27638;42.184;24.848;2023-03-01T03:51:30;3.13;;;2.08;;
41946;SDS011;27638;42.184;24.848;2023-03-01T03:53:55;3.55;;;1.98;;
41946;SDS011;27638;42.184;24.848;2023-03-01T03:56:21;3.80;;;2.60;;
41946;SDS011;27638;42.184;24.848;2023-03-01T03:58:50;3.55;;;2.63;;
41946;SDS011;27638;42.184;24.848;2023-03-01T04:01:17;5.57;;;2.90;;
41946;SDS011;27638;42.184;24.848;2023-03-01T04:03:42;5.65;;;3.15;;
41946;SDS011;27638;42.184;24.848;2023-03-01T04:06:11;5.40;;;2.80;;
41946;SDS011;27638;42.184;24.848;2023-03-01T04:08:38;2.95;;;2.40;;
41946;SDS011;27638;42.184;24.848;2023-03-01T04:11:04;3.28;;;2.40;;
41946;SDS011;27638;42.184;24.848;2023-03-01T04:13:49;4.88;;;2.83;;
41946;SDS011;27638;42.184;24.848;2023-03-01T04:16:15;3.33;;;2.40;;
41946;SDS011;27638;42.184;24.848;2023-03-01T04:18:42;3.65;;;2.67;;
41946;SDS011;27638;42.184;24.848;2023-03-01T04:21:08;3.70;;;2.70;;
41946;SDS011;27638;42.184;24.848;2023-03-01T04:23:33;5.70;;;3.40;;
41946;SDS011;27638;42.184;24.848;2023-03-01T04:26:00;5.65;;;3.08;;
41946;SDS011;27638;42.184;24.848;2023-03-01T04:28:29;6.25;;;4.03;;
41946;SDS011;27638;42.184;24.848;2023-03-01T04:31:08;9.38;;;4.80;;
41946;SDS011;27638;42.184;24.848;2023-03-01T04:33:39;5.05;;;3.15;;
41946;SDS011;27638;42.184;24.848;2023-03-01T04:36:06;5.78;;;3.53;;
41946;SDS011;27638;42.184;24.848;2023-03-01T04:38:34;5.22;;;3.28;;
41946;SDS011;27638;42.184;24.848;2023-03-01T04:41:01;5.25;;;3.30;;
41946;SDS011;27638;42.184;24.848;2023-03-01T04:43:28;5.30;;;3.08;;
41946;SDS011;27638;42.184;24.848;2023-03-01T04:45:54;5.82;;;3.72;;
41946;SDS011;27638;42.184;24.848;2023-03-01T04:48:19;4.82;;;3.40;;
41946;SDS011;27638;42.184;24.848;2023-03-01T04:50:44;5.35;;;3.50;;
41946;SDS011;27638;42.184;24.848;2023-03-01T04:53:10;4.70;;;3.58;;
41946;SDS011;27638;42.184;24.848;2023-03-01T04:55:35;4.57;;;3.13;;
41946;SDS011;27638;42.184;24.848;2023-03-01T04:58:01;4.40;;;3.17;;
41946;SDS011;27638;42.184;24.848;2023-03-01T05:00:26;4.65;;;3.60;;
41946;SDS011;27638;42.184;24.848;2023-03-01T05:02:59;5.70;;;3.47;;
41946;SDS011;27638;42.184;24.848;2023-03-01T05:05:27;6.63;;;3.28;;
41946;SDS011;27638;42.184;24.848;2023-03-01T05:07:56;5.07;;;4.28;;
41946;SDS011;27638;42.184;24.848;2023-03-01T05:10:23;5.30;;;3.40;;
41946;SDS011;27638;42.184;24.848;2023-03-01T05:12:50;7.82;;;4.20;;
41946;SDS011;27638;42.184;24.848;2023-03-01T05:15:17;7.80;;;4.43;;
41946;SDS011;27638;42.184;24.848;2023-03-01T05:17:43;6.47;;;4.40;;
41946;SDS011;27638;42.184;24.848;2023-03-01T05:20:09;6.43;;;4.57;;
41946;SDS011;27638;42.184;24.848;2023-03-01T05:22:35;7.40;;;4.60;;
41946;SDS011;27638;42.184;24.848;2023-03-01T05:25:02;8.70;;;4.63;;
41946;SDS011;27638;42.184;24.848;2023-03-01T05:27:28;7.00;;;4.72;;
41946;SDS011;27638;42.184;24.848;2023-03-01T05:29:54;5.30;;;3.22;;
41946;SDS011;27638;42.184;24.848;2023-03-01T05:32:20;6.30;;;3.90;;
41946;SDS011;27638;42.184;24.848;2023-03-01T05:34:46;10.15;;;5.38;;
41946;SDS011;27638;42.184;24.848;2023-03-01T05:37:11;10.10;;;5.40;;
41946;SDS011;27638;42.184;24.848;2023-03-01T05:39:38;11.18;;;6.15;;
41946;SDS011;27638;42.184;24.848;2023-03-01T05:42:03;12.18;;;6.15;;
41946;SDS011;27638;42.184;24.848;2023-03-01T05:44:29;11.80;;;6.68;;
41946;SDS011;27638;42.184;24.848;2023-03-01T05:46:55;11.60;;;5.85;;
41946;SDS011;27638;42.184;24.848;2023-03-01T05:49:21;13.73;;;6.60;;
41946;SDS011;27638;42.184;24.848;2023-03-01T05:51:49;9.25;;;4.80;;
41946;SDS011;27638;42.184;24.848;2023-03-01T05:54:16;6.32;;;4.15;;
41946;SDS011;27638;42.184;24.848;2023-03-01T05:56:41;6.63;;;3.40;;
41946;SDS011;27638;42.184;24.848;2023-03-01T05:59:07;5.43;;;3.45;;
41946;SDS011;27638;42.184;24.848;2023-03-01T06:01:33;5.28;;;3.13;;
41946;SDS011;27638;42.184;24.848;2023-03-01T06:03:59;4.90;;;3.33;;
41946;SDS011;27638;42.184;24.848;2023-03-01T06:06:25;5.70;;;3.55;;
41946;SDS011;27638;42.184;24.848;2023-03-01T06:08:50;4.13;;;3.22;;
41946;SDS011;27638;42.184;24.848;2023-03-01T06:11:16;5.22;;;3.28;;
41946;SDS011;27638;42.184;24.848;2023-03-01T06:13:43;6.15;;;3.70;;
41946;SDS011;27638;42.184;24.848;2023-03-01T06:16:09;7.25;;;4.28;;
41946;SDS011;27638;42.184;24.848;2023-03-01T06:18:34;7.30;;;3.95;;
41946;SDS011;27638;42.184;24.848;2023-03-01T06:21:01;6.05;;;4.03;;
41946;SDS011;27638;42.184;24.848;2023-03-01T06:23:26;7.40;;;4.30;;
41946;SDS011;27638;42.184;24.848;2023-03-01T06:25:52;7.43;;;4.45;;
41946;SDS011;27638;42.184;24.848;2023-03-01T06:28:17;5.63;;;3.88;;
41946;SDS011;27638;42.184;24.848;2023-03-01T06:30:43;5.28;;;4.20;;
41946;SDS011;27638;42.184;24.848;2023-03-01T06:33:09;7.75;;;4.82;;
41946;SDS011;27638;42.184;24.848;2023-03-01T06:35:34;9.15;;;5.35;;
41946;SDS011;27638;42.184;24.848;2023-03-01T06:38:00;8.07;;;5.18;;
41946;SDS011;27638;42.184;24.848;2023-03-01T06:40:27;7.90;;;4.78;;
41946;SDS011;27638;42.184;24.848;2023-03-01T06:42:53;7.18;;;5.03;;
41946;SDS011;27638;42.184;24.848;2023-03-01T06:45:19;7.30;;;3.97;;
41946;SDS011;27638;42.184;24.848;2023-03-01T06:47:46;5.95;;;3.70;;
41946;SDS011;27638;42.184;24.848;2023-03-01T06:50:13;5.93;;;3.60;;
41946;SDS011;27638;42.184;24.848;2023-03-01T06:52:39;5.63;;;3.78;;
41946;SDS011;27638;42.184;24.848;2023-03-01T06:55:04;4.82;;;3.53;;
41946;SDS011;27638;42.184;24.848;2023-03-01T06:57:31;4.78;;;3.35;;
41946;SDS011;27638;42.184;24.848;2023-03-01T06:59:56;5.07;;;3.42;;
41946;SDS011;27638;42.184;24.848;2023-03-01T07:02:22;4.47;;;2.72;;
41946;SDS011;27638;42.184;24.848;2023-03-01T07:04:51;3.75;;;2.90;;
41946;SDS011;27638;42.184;24.848;2023-03-01T07:07:17;7.60;;;3.28;;
41946;SDS011;27638;42.184;24.848;2023-03-01T07:09:43;4.10;;;3.03;;
41946;SDS011;27638;42.184;24.848;2023-03-01T07:12:09;3.22;;;2.22;;
41946;SDS011;27638;42.184;24.848;2023-03-01T07:14:35;2.30;;;1.67;;
41946;SDS011;27638;42.184;24.848;2023-03-01T07:17:00;2.22;;;1.50;;
41946;SDS011;27638;42.184;24.848;2023-03-01T07:19:26;4.85;;;2.60;;
41946;SDS011;27638;42.184;24.848;2023-03-01T07:21:51;2.28;;;1.92;;
41946;SDS011;27638;42.184;24.848;2023-03-01T07:24:17;6.30;;;3.05;;
41946;SDS011;27638;42.184;24.848;2023-03-01T07:26:42;5.93;;;3.40;;
41946;SDS011;27638;42.184;24.848;2023-03-01T07:29:09;3.05;;;2.58;;
41946;SDS011;27638;42.184;24.848;2023-03-01T07:31:35;6.30;;;3.70;;
41946;SDS011;27638;42.184;24.848;2023-03-01T07:34:01;3.80;;;2.67;;
41946;SDS011;27638;42.184;24.848;2023-03-01T07:36:27;4.85;;;3.50;;
41946;SDS011;27638;42.184;24.848;2023-03-01T07:38:53;4.53;;;3.47;;
41946;SDS011;27638;42.184;24.848;2023-03-01T07:41:20;7.15;;;3.92;;
41946;SDS011;27638;42.184;24.848;2023-03-01T07:43:46;6.53;;;3.90;;
41946;SDS011;27638;42.184;24.848;2023-03-01T07:46:12;4.63;;;3.45;;
41946;SDS011;27638;42.184;24.848;2023-03-01T07:48:37;4.70;;;2.88;;
41946;SDS011;27638;42.184;24.848;2023-03-01T07:51:04;4.57;;;3.22;;
41946;SDS011;27638;42.184;24.848;2023-03-01T07:53:30;3.90;;;2.47;;
41946;SDS011;27638;42.184;24.848;2023-03-01T07:56:00;4.82;;;2.53;;
41946;SDS011;27638;42.184;24.848;2023-03-01T07:58:27;3.25;;;2.28;;
41946;SDS011;27638;42.184;24.848;2023-03-01T08:00:52;6.38;;;2.88;;
41946;SDS011;27638;42.184;24.848;2023-03-01T08:03:18;6.60;;;3.03;;
41946;SDS011;27638;42.184;24.848;2023-03-01T08:05:43;5.15;;;2.53;;
41946;SDS011;27638;42.184;24.848;2023-03-01T08:08:09;3.78;;;3.00;;
41946;SDS011;27638;42.184;24.848;2023-03-01T08:10:35;3.20;;;2.00;;
41946;SDS011;27638;42.184;24.848;2023-03-01T08:13:01;2.78;;;1.85;;
41946;SDS011;27638;42.184;24.848;2023-03-01T08:15:26;2.45;;;1.75;;
41946;SDS011;27638;42.184;24.848;2023-03-01T08:17:52;5.05;;;2.83;;
41946;SDS011;27638;42.184;24.848;2023-03-01T08:20:17;3.85;;;1.98;;
41946;SDS011;27638;42.184;24.848;2023-03-01T08:22:43;2.90;;;1.70;;
41946;SDS011;27638;42.184;24.848;2023-03-01T08:25:08;3.58;;;1.88;;
41946;SDS011;27638;42.184;24.848;2023-03-01T08:27:34;4.22;;;2.90;;
41946;SDS011;27638;42.184;24.848;2023-03-01T08:30:00;3.75;;;2.17;;
41946;SDS011;27638;42.184;24.848;2023-03-01T08:32:25;2.97;;;2.15;;
41946;SDS011;27638;42.184;24.848;2023-03-01T08:34:51;2.53;;;1.40;;
41946;SDS011;27638;42.184;24.848;2023-03-01T08:37:16;3.92;;;2.25;;
41946;SDS011;27638;42.184;24.848;2023-03-01T08:39:42;3.15;;;2.00;;
41946;SDS011;27638;42.184;24.848;2023-03-01T08:42:07;2.42;;;1.80;;
41946;SDS011;27638;42.184;24.848;2023-03-01T08:44:32;3.50;;;2.03;;
41946;SDS011;27638;42.184;24.848;2023-03-01T08:46:59;3.10;;;2.10;;
41946;SDS011;27638;42.184;24.848;2023-03-01T08:49:27;3.90;;;2.80;;
41946;SDS011;27638;42.184;24.848;2023-03-01T08:51:52;3.70;;;1.92;;
41946;SDS011;27638;42.184;24.848;2023-03-01T08:54:19;4.15;;;1.90;;
41946;SDS011;27638;42.184;24.848;2023-03-01T08:56:47;2.35;;;1.35;;
41946;SDS011;27638;42.184;24.848;2023-03-01T08:59:16;3.80;;;1.70;;
41946;SDS011;27638;42.184;24.848;2023-03-01T09:01:43;2.03;;;1.33;;
41946;SDS011;27638;42.184;24.848;2023-03-01T09:04:09;3.22;;;2.10;;
41946;SDS011;27638;42.184;24.848;2023-03-01T09:06:35;3.30;;;1.50;;
41946;SDS011;27638;42.184;24.848;2023-03-01T09:09:02;2.40;;;1.77;;
41946;SDS011;27638;42.184;24.848;2023-03-01T09:11:29;3.72;;;2.60;;
41946;SDS011;27638;42.184;24.848;2023-03-01T09:13:55;4.72;;;2.92;;
41946;SDS011;27638;42.184;24.848;2023-03-01T09:16:21;2.95;;;1.77;;
41946;SDS011;27638;42.184;24.848;2023-03-01T09:18:51;3.92;;;2.08;;
41946;SDS011;27638;42.184;24.848;2023-03-01T09:21:19;6.25;;;1.90;;
41946;SDS011;27638;42.184;24.848;2023-03-01T09:23:46;3.25;;;2.03;;
41946;SDS011;27638;42.184;24.848;2023-03-01T09:26:14;3.80;;;1.98;;
41946;SDS011;27638;42.184;24.848;2023-03-01T09:31:13;2.65;;;1.63;;
41946;SDS011;27638;42.184;24.848;2023-03-01T09:33:39;2.78;;;2.00;;
41946;SDS011;27638;42.184;24.848;2023-03-01T09:36:07;3.97;;;1.63;;
41946;SDS011;27638;42.184;24.848;2023-03-01T09:38:35;3.50;;;1.90;;
41946;SDS011;27638;42.184;24.848;2023-03-01T09:41:01;3.25;;;1.70;;
41946;SDS011;27638;42.184;24.848;2023-03-01T09:46:19;2.55;;;1.70;;
41946;SDS011;27638;42.184;24.848;2023-03-01T09:49:04;6.25;;;3.55;;
41946;SDS011;27638;42.184;24.848;2023-03-01T09:51:36;4.50;;;3.03;;
41946;SDS011;27638;42.184;24.848;2023-03-01T09:54:02;2.15;;;1.88;;
41946;SDS011;27638;42.184;24.848;2023-03-01T09:56:34;3.17;;;2.00;;
41946;SDS011;27638;42.184;24.848;2023-03-01T10:01:59;5.82;;;3.05;;
41946;SDS011;27638;42.184;24.848;2023-03-01T10:04:51;5.63;;;3.80;;
41946;SDS011;27638;42.184;24.848;2023-03-01T10:10:10;3.67;;;2.90;;
41946;SDS011;27638;42.184;24.848;2023-03-01T10:12:48;5.57;;;2.38;;
41946;SDS011;27638;42.184;24.848;2023-03-01T10:15:19;3.40;;;1.83;;
41946;SDS011;27638;42.184;24.848;2023-03-01T10:18:02;3.88;;;2.47;;
41946;SDS011;27638;42.184;24.848;2023-03-01T10:20:42;5.00;;;2.67;;
41946;SDS011;27638;42.184;24.848;2023-03-01T10:23:10;4.07;;;2.75;;
41946;SDS011;27638;42.184;24.848;2023-03-01T10:30:41;4.20;;;2.10;;
41946;SDS011;27638;42.184;24.848;2023-03-01T10:33:20;4.90;;;2.55;;
41946;SDS011;27638;42.184;24.848;2023-03-01T10:35:51;4.10;;;2.45;;
41946;SDS011;27638;42.184;24.848;2023-03-01T10:38:17;2.75;;;1.80;;
41946;SDS011;27638;42.184;24.848;2023-03-01T10:51:46;8.23;;;4.43;;
41946;SDS011;27638;42.184;24.848;2023-03-01T10:54:30;4.45;;;2.63;;
41946;SDS011;27638;42.184;24.848;2023-03-01T10:56:58;3.70;;;2.35;;
41946;SDS011;27638;42.184;24.848;2023-03-01T10:59:29;3.95;;;2.38;;
41946;SDS011;27638;42.184;24.848;2023-03-01T11:02:21;5.45;;;2.28;;
41946;SDS011;27638;42.184;24.848;2023-03-01T11:04:59;4.03;;;2.30;;
41946;SDS011;27638;42.184;24.848;2023-03-01T11:10:20;3.97;;;2.63;;
41946;SDS011;27638;42.184;24.848;2023-03-01T11:12:51;4.47;;;2.17;;
41946;SDS011;27638;42.184;24.848;2023-03-01T11:15:22;3.17;;;1.90;;
41946;SDS011;27638;42.184;24.848;2023-03-01T11:17:53;2.88;;;2.03;;
41946;SDS011;27638;42.184;24.848;2023-03-01T11:20:29;3.45;;;2.33;;
41946;SDS011;27638;42.184;24.848;2023-03-01T11:23:18;1.73;;;1.30;;
41946;SDS011;27638;42.184;24.848;2023-03-01T11:28:12;5.63;;;3.05;;
41946;SDS011;27638;42.184;24.848;2023-03-01T11:38:52;1.85;;;1.00;;
41946;SDS011;27638;42.184;24.848;2023-03-01T11:44:03;2.15;;;1.45;;
41946;SDS011;27638;42.184;24.848;2023-03-01T11:49:43;2.38;;;1.10;;
41946;SDS011;27638;42.184;24.848;2023-03-01T12:06:59;4.00;;;1.80;;
41946;SDS011;27638;42.184;24.848;2023-03-01T12:12:31;2.78;;;1.92;;
41946;SDS011;27638;42.184;24.848;2023-03-01T12:15:48;2.92;;;2.45;;
41946;SDS011;27638;42.184;24.848;2023-03-01T12:28:51;2.90;;;2.10;;
41946;SDS011;27638;42.184;24.848;2023-03-01T12:34:21;3.58;;;2.05;;
41946;SDS011;27638;42.184;24.848;2023-03-01T12:42:57;3.08;;;2.42;;
41946;SDS011;27638;42.184;24.848;2023-03-01T12:50:53;2.25;;;1.85;;
41946;SDS011;27638;42.184;24.848;2023-03-01T12:53:27;3.58;;;2.72;;
41946;SDS011;27638;42.184;24.848;2023-03-01T12:55:58;3.45;;;2.40;;
41946;SDS011;27638;42.184;24.848;2023-03-01T12:58:49;2.92;;;1.63;;
41946;SDS011;27638;42.184;24.848;2023-03-01T13:01:31;2.22;;;1.55;;
41946;SDS011;27638;42.184;24.848;2023-03-01T13:09:18;3.97;;;2.58;;
41946;SDS011;27638;42.184;24.848;2023-03-01T13:11:55;4.30;;;2.95;;
41946;SDS011;27638;42.184;24.848;2023-03-01T13:16:46;4.05;;;2.92;;
41946;SDS011;27638;42.184;24.848;2023-03-01T13:19:18;4.85;;;3.42;;
41946;SDS011;27638;42.184;24.848;2023-03-01T13:24:27;4.65;;;3.13;;
41946;SDS011;27638;42.184;24.848;2023-03-01T13:29:47;6.28;;;3.47;;
41946;SDS011;27638;42.184;24.848;2023-03-01T13:32:21;4.68;;;2.97;;
41946;SDS011;27638;42.184;24.848;2023-03-01T13:34:53;8.35;;;3.88;;
41946;SDS011;27638;42.184;24.848;2023-03-01T13:37:24;4.80;;;2.60;;
41946;SDS011;27638;42.184;24.848;2023-03-01T13:39:54;5.13;;;2.50;;
41946;SDS011;27638;42.184;24.848;2023-03-01T13:42:39;6.53;;;3.60;;
41946;SDS011;27638;42.184;24.848;2023-03-01T13:47:59;4.95;;;2.95;;
41946;SDS011;27638;42.184;24.848;2023-03-01T13:50:32;7.80;;;4.55;;
41946;SDS011;27638;42.184;24.848;2023-03-01T13:53:03;9.15;;;4.88;;
41946;SDS011;27638;42.184;24.848;2023-03-01T13:55:37;4.82;;;2.97;;
41946;SDS011;27638;42.184;24.848;2023-03-01T13:58:15;3.67;;;2.38;;
41946;SDS011;27638;42.184;24.848;2023-03-01T14:00:44;4.00;;;2.70;;
41946;SDS011;27638;42.184;24.848;2023-03-01T14:03:12;4.60;;;3.08;;
41946;SDS011;27638;42.184;24.848;2023-03-01T14:05:43;9.60;;;4.43;;
41946;SDS011;27638;42.184;24.848;2023-03-01T14:08:24;20.17;;;7.63;;
41946;SDS011;27638;42.184;24.848;2023-03-01T14:19:39;6.47;;;4.20;;
41946;SDS011;27638;42.184;24.848;2023-03-01T14:22:26;5.20;;;2.75;;
41946;SDS011;27638;42.184;24.848;2023-03-01T14:25:00;6.80;;;3.63;;
41946;SDS011;27638;42.184;24.848;2023-03-01T14:27:30;5.03;;;2.53;;
41946;SDS011;27638;42.184;24.848;2023-03-01T14:30:14;5.28;;;2.75;;
41946;SDS011;27638;42.184;24.848;2023-03-01T14:32:51;13.90;;;4.60;;
41946;SDS011;27638;42.184;24.848;2023-03-01T14:35:21;8.80;;;4.15;;
41946;SDS011;27638;42.184;24.848;2023-03-01T14:37:49;13.73;;;6.50;;
41946;SDS011;27638;42.184;24.848;2023-03-01T14:40:47;10.50;;;5.22;;
41946;SDS011;27638;42.184;24.848;2023-03-01T14:43:11;6.50;;;4.18;;
41946;SDS011;27638;42.184;24.848;2023-03-01T14:45:46;7.32;;;3.25;;
41946;SDS011;27638;42.184;24.848;2023-03-01T14:48:14;4.65;;;3.40;;
41946;SDS011;27638;42.184;24.848;2023-03-01T14:50:41;6.80;;;3.50;;
41946;SDS011;27638;42.184;24.848;2023-03-01T14:53:13;5.95;;;3.00;;
41946;SDS011;27638;42.184;24.848;2023-03-01T14:55:44;5.03;;;2.85;;
41946;SDS011;27638;42.184;24.848;2023-03-01T14:58:13;6.40;;;3.28;;
41946;SDS011;27638;42.184;24.848;2023-03-01T15:00:43;5.47;;;3.80;;
41946;SDS011;27638;42.184;24.848;2023-03-01T15:03:17;8.75;;;4.43;;
41946;SDS011;27638;42.184;24.848;2023-03-01T15:05:49;5.95;;;3.13;;
41946;SDS011;27638;42.184;24.848;2023-03-01T15:08:16;11.95;;;5.50;;
41946;SDS011;27638;42.184;24.848;2023-03-01T15:13:28;6.25;;;4.13;;
41946;SDS011;27638;42.184;24.848;2023-03-01T15:18:43;3.67;;;2.22;;
41946;SDS011;27638;42.184;24.848;2023-03-01T15:21:16;3.33;;;2.17;;
41946;SDS011;27638;42.184;24.848;2023-03-01T15:23:51;4.45;;;3.25;;
41946;SDS011;27638;42.184;24.848;2023-03-01T15:26:27;6.22;;;3.67;;
41946;SDS011;27638;42.184;24.848;2023-03-01T15:29:00;6.78;;;3.80;;
41946;SDS011;27638;42.184;24.848;2023-03-01T15:31:32;6.32;;;4.72;;
41946;SDS011;27638;42.184;24.848;2023-03-01T15:37:05;7.63;;;4.57;;
41946;SDS011;27638;42.184;24.848;2023-03-01T15:39:55;7.03;;;3.92;;
41946;SDS011;27638;42.184;24.848;2023-03-01T15:44:50;5.90;;;4.60;;
41946;SDS011;27638;42.184;24.848;2023-03-01T15:47:33;10.85;;;6.10;;
41946;SDS011;27638;42.184;24.848;2023-03-01T15:50:00;46.47;;;17.35;;
41946;SDS011;27638;42.184;24.848;2023-03-01T15:52:28;24.33;;;10.38;;
41946;SDS011;27638;42.184;24.848;2023-03-01T15:55:02;13.02;;;7.25;;
41946;SDS011;27638;42.184;24.848;2023-03-01T15:57:30;12.55;;;7.28;;
41946;SDS011;27638;42.184;24.848;2023-03-01T15:59:56;11.05;;;6.38;;
41946;SDS011;27638;42.184;24.848;2023-03-01T16:02:22;27.35;;;12.98;;
41946;SDS011;27638;42.184;24.848;2023-03-01T16:04:49;14.20;;;7.55;;
41946;SDS011;27638;42.184;24.848;2023-03-01T16:07:15;15.15;;;8.05;;
41946;SDS011;27638;42.184;24.848;2023-03-01T16:09:40;15.85;;;6.97;;
41946;SDS011;27638;42.184;24.848;2023-03-01T16:12:09;18.08;;;9.13;;
41946;SDS011;27638;42.184;24.848;2023-03-01T16:14:39;13.43;;;7.95;;
41946;SDS011;27638;42.184;24.848;2023-03-01T16:17:04;9.57;;;5.05;;
41946;SDS011;27638;42.184;24.848;2023-03-01T16:19:30;9.60;;;5.90;;
41946;SDS011;27638;42.184;24.848;2023-03-01T16:21:55;8.55;;;5.50;;
41946;SDS011;27638;42.184;24.848;2023-03-01T16:24:21;11.77;;;6.82;;
41946;SDS011;27638;42.184;24.848;2023-03-01T16:26:46;12.52;;;5.70;;
41946;SDS011;27638;42.184;24.848;2023-03-01T16:29:12;9.60;;;5.28;;
41946;SDS011;27638;42.184;24.848;2023-03-01T16:31:38;9.80;;;5.00;;
41946;SDS011;27638;42.184;24.848;2023-03-01T16:34:03;7.82;;;5.15;;
41946;SDS011;27638;42.184;24.848;2023-03-01T16:36:29;9.73;;;5.28;;
41946;SDS011;27638;42.184;24.848;2023-03-01T16:38:55;10.82;;;6.38;;
41946;SDS011;27638;42.184;24.848;2023-03-01T16:41:23;14.55;;;7.38;;
41946;SDS011;27638;42.184;24.848;2023-03-01T16:43:49;10.77;;;6.07;;
41946;SDS011;27638;42.184;24.848;2023-03-01T16:46:16;11.10;;;5.90;;
41946;SDS011;27638;42.184;24.848;2023-03-01T16:48:52;14.63;;;8.48;;
41946;SDS011;27638;42.184;24.848;2023-03-01T16:51:18;16.20;;;8.95;;
41946;SDS011;27638;42.184;24.848;2023-03-01T16:53:44;14.07;;;8.15;;
41946;SDS011;27638;42.184;24.848;2023-03-01T16:56:10;21.48;;;10.10;;
41946;SDS011;27638;42.184;24.848;2023-03-01T16:58:38;18.80;;;11.63;;